Time;durP1;ratioP1;P1;durP2;ratioP2;P2;SDS_P1;SDS_P2;PMS_P1;PMS_P2;Temp;Humidity;BMP_temperature;BMP_pressure;BME280_temperature;BME280_humidity;BME280_pressure;Samples;Min_cycle;Max_cycle;Signal;HPM_P1;HPM_P2
2023/11/11 00:01:47;;;;;;;0.00;0.00;;;;;;;5.88;74.49;99577.50;15706882;28;20298;-52
2023/11/11 00:09:20;;;;;;;0.00;0.00;;;;;;;5.76;74.88;99564.00;15728597;28;20044;-52
2023/11/11 00:16:55;;;;;;;0.00;0.00;;;;;;;5.64;74.71;99563.00;15721397;28;20239;-54
2023/11/11 00:24:29;;;;;;;0.00;0.00;;;;;;;5.38;75.46;99556.69;15714594;28;20045;-52
2023/11/11 00:32:06;;;;;;;0.00;0.00;;;;;;;5.77;73.73;99543.53;15724363;28;20489;-53
2023/11/11 00:39:40;;;;;;;0.17;0.17;;;;;;;6.16;72.00;99541.81;15710299;28;20067;-51
2023/11/11 00:47:16;;;;;;;0.00;0.00;;;;;;;5.98;72.31;99543.31;15692161;28;20036;-49
2023/11/11 00:54:49;;;;;;;0.10;0.10;;;;;;;5.89;72.31;99545.34;15700823;28;20413;-53
2023/11/11 01:02:24;;;;;;;0.00;0.00;;;;;;;5.89;71.90;99553.31;15701126;28;20094;-53
2023/11/11 01:09:58;;;;;;;0.00;0.00;;;;;;;5.81;72.20;99550.06;15714084;28;20045;-52
2023/11/11 01:17:33;;;;;;;0.00;0.00;;;;;;;5.79;72.07;99555.63;15700658;28;20098;-52
2023/11/11 01:25:08;;;;;;;0.00;0.00;;;;;;;5.58;73.09;99558.50;15717764;28;20048;-51
2023/11/11 01:32:45;;;;;;;0.00;0.00;;;;;;;5.67;72.03;99551.94;15709238;28;20064;-53
2023/11/11 01:40:18;;;;;;;0.32;0.32;;;;;;;5.50;71.93;99537.41;15705386;28;20135;-52
2023/11/11 01:47:54;;;;;;;0.00;0.00;;;;;;;5.43;72.67;99536.63;15702125;28;20045;-52
2023/11/11 01:55:28;;;;;;;0.10;0.10;;;;;;;4.95;74.34;99529.66;15711740;28;20306;-49
2023/11/11 02:03:03;;;;;;;0.22;0.22;;;;;;;5.42;72.83;99514.53;15723653;28;20048;-50
2023/11/11 02:10:46;;;;;;;0.00;0.00;;;;;;;5.20;72.70;99521.06;15711053;28;20044;-52
2023/11/11 02:18:21;;;;;;;0.00;0.00;;;;;;;5.38;72.13;99511.44;15715435;28;20036;-51
2023/11/11 02:25:57;;;;;;;0.20;0.20;;;;;;;5.09;72.45;99503.91;15714535;28;20074;-50
2023/11/11 02:33:31;;;;;;;0.00;0.00;;;;;;;5.00;72.44;99503.28;15701413;28;20048;-54
2023/11/11 02:41:06;;;;;;;0.00;0.00;;;;;;;4.98;72.09;99499.19;15707481;28;20068;-49
2023/11/11 02:48:39;;;;;;;0.00;0.00;;;;;;;5.09;72.22;99504.72;15719696;28;20033;-50
2023/11/11 02:56:14;;;;;;;0.00;0.00;;;;;;;4.99;71.69;99506.97;15707101;28;20465;-52
2023/11/11 03:03:49;;;;;;;0.00;0.00;;;;;;;4.86;71.13;99501.63;15729198;28;20075;-50
2023/11/11 03:11:24;;;;;;;0.10;0.10;;;;;;;4.58;71.40;99488.53;15720701;28;20098;-50
2023/11/11 03:18:57;;;;;;;0.00;0.00;;;;;;;4.52;71.90;99491.97;15725192;28;20098;-51
2023/11/11 03:26:31;;;;;;;;;;;;;;;4.35;71.70;99483.56;15706784;28;20041;-54
2023/11/11 03:34:05;;;;;;;0.00;0.00;;;;;;;4.29;72.13;99479.88;15729168;28;19920;-50
2023/11/11 03:41:41;;;;;;;0.00;0.00;;;;;;;4.43;72.92;99477.22;15705545;28;20115;-52
2023/11/11 03:49:15;;;;;;;0.00;0.00;;;;;;;4.62;72.99;99484.44;15724259;28;20401;-51
2023/11/11 03:56:50;;;;;;;0.28;0.28;;;;;;;4.76;73.56;99479.97;15731227;28;20075;-54
2023/11/11 04:04:25;;;;;;;0.25;0.25;;;;;;;4.99;73.97;99483.03;15710051;28;20117;-53
2023/11/11 04:12:02;;;;;;;0.00;0.00;;;;;;;5.22;73.44;99487.94;15725525;28;20049;-51
2023/11/11 04:19:38;;;;;;;0.00;0.00;;;;;;;5.24;73.80;99477.09;15725099;28;20029;-53
2023/11/11 04:27:13;;;;;;;0.28;0.20;;;;;;;5.36;73.98;99476.25;15707934;28;20045;-53
2023/11/11 04:34:46;;;;;;;0.00;0.00;;;;;;;5.52;73.71;99490.94;15730126;28;20395;-54
2023/11/11 04:42:21;;;;;;;0.05;0.05;;;;;;;5.44;73.70;99488.50;15716016;28;20172;-52
2023/11/11 04:49:55;;;;;;;0.00;0.00;;;;;;;5.73;72.45;99497.03;15730497;28;20614;-51
2023/11/11 04:57:30;;;;;;;0.00;0.00;;;;;;;5.74;72.59;99496.84;15715165;28;20041;-51
2023/11/11 05:05:04;;;;;;;0.00;0.00;;;;;;;5.77;73.11;99501.72;15730677;28;20202;-51
2023/11/11 05:12:39;;;;;;;0.00;0.00;;;;;;;5.85;73.01;99490.03;15714541;28;20070;-50
2023/11/11 05:20:14;;;;;;;0.00;0.00;;;;;;;6.08;72.41;99502.91;15721782;28;20060;-50
2023/11/11 05:27:50;;;;;;;0.00;0.00;;;;;;;5.86;73.13;99483.69;15720086;28;20102;-50
2023/11/11 05:35:24;;;;;;;0.10;0.10;;;;;;;5.99;72.36;99496.19;15700171;28;20043;-51
2023/11/11 05:43:00;;;;;;;0.00;0.00;;;;;;;6.00;71.56;99497.81;15713103;28;20079;-49
2023/11/11 05:50:34;;;;;;;0.85;0.85;;;;;;;6.05;71.75;99508.63;15715419;23;20177;-47
2023/11/11 05:58:10;;;;;;;0.00;0.00;;;;;;;5.92;71.86;99536.13;15609449;28;20048;-50
2023/11/11 06:05:45;;;;;;;0.00;0.00;;;;;;;5.55;72.11;99548.28;15611855;28;20522;-48
2023/11/11 06:13:20;;;;;;;3.42;0.32;;;;;;;5.58;72.33;99543.34;15593303;28;20033;-49
2023/11/11 06:20:53;;;;;;;0.10;0.10;;;;;;;5.24;73.25;99543.59;15609919;28;20129;-48
2023/11/11 06:28:28;;;;;;;0.00;0.00;;;;;;;5.49;72.40;99547.25;15605803;28;20044;-50
2023/11/11 06:36:01;;;;;;;0.00;0.00;;;;;;;5.28;71.98;99548.28;15606699;28;20052;-49
2023/11/11 06:43:36;;;;;;;0.20;0.20;;;;;;;5.27;71.79;99544.00;15608139;28;20123;-52
2023/11/11 06:51:10;;;;;;;0.00;0.00;;;;;;;5.00;73.60;99561.78;15617024;28;20049;-47
2023/11/11 06:58:45;;;;;;;0.00;0.00;;;;;;;5.15;74.53;99569.56;15630834;28;20509;-48
2023/11/11 07:06:22;;;;;;;0.10;0.10;;;;;;;5.74;73.26;99573.25;15626296;28;20051;-47
2023/11/11 07:13:57;;;;;;;0.00;0.00;;;;;;;5.70;73.35;99574.69;15628846;28;20053;-48
2023/11/11 07:21:30;;;;;;;0.00;0.00;;;;;;;5.93;72.88;99580.41;15629775;28;20139;-50
2023/11/11 07:29:05;;;;;;;0.00;0.00;;;;;;;5.79;73.67;99579.56;15628071;28;20045;-50
2023/11/11 07:36:39;;;;;;;1.60;0.70;;;;;;;6.18;73.34;99580.53;15628373;28;20124;-49
2023/11/11 07:44:14;;;;;;;0.00;0.00;;;;;;;6.44;73.65;99582.28;15607399;28;20045;-49
2023/11/11 07:51:49;;;;;;;1.17;0.22;;;;;;;6.74;72.44;99584.38;15625214;28;20100;-48
2023/11/11 07:59:24;;;;;;;0.43;0.40;;;;;;;6.79;71.41;99597.91;15632638;28;20449;-49
2023/11/11 08:06:57;;;;;;;0.08;0.08;;;;;;;7.25;69.08;99602.94;15622754;28;20080;-48
2023/11/11 08:14:32;;;;;;;0.00;0.00;;;;;;;7.04;69.64;99597.94;15613459;28;20048;-49
2023/11/11 08:22:07;;;;;;;0.00;0.00;;;;;;;6.86;70.39;99604.84;15606809;28;20092;-49
2023/11/11 08:29:42;;;;;;;0.63;0.52;;;;;;;7.00;70.27;99612.78;15611417;28;20129;-47
2023/11/11 08:37:15;;;;;;;0.00;0.00;;;;;;;7.15;70.09;99623.97;15598247;28;20068;-52
2023/11/11 08:44:51;;;;;;;0.00;0.00;;;;;;;7.29;69.45;99620.16;15588434;28;20038;-49
2023/11/11 08:52:25;;;;;;;1.20;0.85;;;;;;;7.39;68.88;99620.50;15610987;28;20065;-48
2023/11/11 09:00:00;;;;;;;1.25;1.10;;;;;;;7.24;68.67;99587.97;15614368;28;20041;-51
2023/11/11 09:07:35;;;;;;;0.10;0.10;;;;;;;7.24;69.47;99630.66;15613752;28;20476;-48
2023/11/11 09:15:10;;;;;;;0.10;0.10;;;;;;;7.38;69.42;99632.22;15586547;28;20069;-51
2023/11/11 09:22:44;;;;;;;0.50;0.50;;;;;;;7.92;68.21;99633.38;15615611;28;20060;-48
2023/11/11 09:30:22;;;;;;;0.00;0.00;;;;;;;8.23;67.14;99622.81;15597545;28;20463;-49
2023/11/11 09:37:56;;;;;;;0.00;0.00;;;;;;;8.34;66.66;99633.56;15615448;28;20544;-49
2023/11/11 09:45:32;;;;;;;0.10;0.10;;;;;;;8.40;66.68;99630.06;15614200;28;20041;-49
2023/11/11 09:53:06;;;;;;;0.00;0.00;;;;;;;8.81;65.06;99630.38;15596181;28;20060;-52
2023/11/11 10:00:43;;;;;;;0.00;0.00;;;;;;;8.85;65.19;99634.25;15613732;28;20041;-51
2023/11/11 10:08:17;;;;;;;0.00;0.00;;;;;;;9.09;64.35;99633.31;15602262;28;20406;-48
2023/11/11 10:16:08;;;;;;;0.10;0.10;;;;;;;9.05;64.49;99639.34;15600980;28;20495;-50
2023/11/11 10:23:44;;;;;;;0.05;0.05;;;;;;;8.09;67.09;99643.53;15586774;28;20099;-48
2023/11/11 10:31:21;;;;;;;0.00;0.00;;;;;;;8.79;64.97;99635.97;15612351;28;20038;-48
2023/11/11 10:38:56;;;;;;;0.00;0.00;;;;;;;9.17;64.60;99641.00;15612719;28;20095;-53
2023/11/11 10:46:31;;;;;;;0.80;0.75;;;;;;;9.18;64.76;99641.81;15580146;28;20549;-51
2023/11/11 10:54:05;;;;;;;0.00;0.00;;;;;;;8.98;65.79;99650.13;15606637;28;20053;-50
2023/11/11 11:01:41;;;;;;;0.22;0.20;;;;;;;8.76;70.15;99648.97;15611256;28;20087;-51
2023/11/11 11:09:23;;;;;;;0.00;0.00;;;;;;;8.86;70.57;99660.78;15610943;28;20107;-49
2023/11/11 11:17:00;;;;;;;0.00;0.00;;;;;;;9.04;70.41;99667.13;15608952;28;20049;-48
2023/11/11 11:24:37;;;;;;;0.30;0.25;;;;;;;8.57;73.10;99659.69;15606872;28;20045;-49
2023/11/11 11:32:12;;;;;;;0.00;0.00;;;;;;;8.04;75.87;99667.44;15591178;28;20065;-49
2023/11/11 11:39:56;;;;;;;0.10;0.10;;;;;;;7.69;77.98;99665.25;15602634;28;20038;-46
2023/11/11 11:47:33;;;;;;;0.00;0.00;;;;;;;8.35;75.76;99664.66;15613195;28;20526;-49
2023/11/11 11:55:07;;;;;;;0.00;0.00;;;;;;;8.86;75.68;99658.13;15606063;28;20402;-56
2023/11/11 12:02:42;;;;;;;0.20;0.20;;;;;;;9.88;70.72;99657.22;15619495;28;20132;-50
2023/11/11 12:10:15;;;;;;;0.00;0.00;;;;;;;9.95;70.89;99666.78;15618989;28;20041;-53
2023/11/11 12:17:52;;;;;;;0.00;0.00;;;;;;;9.13;72.22;99671.13;15603834;28;20056;-50
2023/11/11 12:25:27;;;;;;;0.00;0.00;;;;;;;9.93;70.74;99673.41;15609928;28;20095;-51
2023/11/11 12:33:04;;;;;;;1.25;0.65;;;;;;;9.93;71.32;99690.34;15621863;28;20092;-54
2023/11/11 12:40:38;;;;;;;1.48;0.47;;;;;;;9.53;72.47;99697.34;15624943;28;20041;-52
2023/11/11 12:48:12;;;;;;;0.40;0.40;;;;;;;9.62;73.58;99693.31;15618873;28;20498;-53
2023/11/11 12:55:46;;;;;;;0.20;0.20;;;;;;;9.17;73.38;99697.22;15621643;28;20099;-51
2023/11/11 13:03:25;;;;;;;0.00;0.00;;;;;;;9.66;70.87;99692.63;15619403;28;20045;-50
2023/11/11 13:11:00;;;;;;;0.52;0.45;;;;;;;9.19;74.48;99702.38;15599569;28;20045;-51
2023/11/11 13:18:35;;;;;;;0.90;0.80;;;;;;;9.69;73.43;99707.41;15621092;28;20037;-52
2023/11/11 13:26:10;;;;;;;0.00;0.00;;;;;;;9.87;73.37;99720.72;15616121;28;20057;-53
2023/11/11 13:33:48;;;;;;;0.55;0.55;;;;;;;9.74;73.28;99722.78;15619252;28;20037;-51
2023/11/11 13:41:21;;;;;;;0.00;0.00;;;;;;;9.89;72.51;99720.50;15619483;28;20041;-55
2023/11/11 13:48:59;;;;;;;0.10;0.10;;;;;;;8.96;76.01;99727.16;15617670;28;20049;-49
2023/11/11 13:56:34;;;;;;;0.00;0.00;;;;;;;8.12;77.90;99744.66;15612264;28;20049;-49
2023/11/11 14:04:10;;;;;;;0.00;0.00;;;;;;;7.90;76.06;99766.41;15617114;28;20149;-52
2023/11/11 14:11:44;;;;;;;0.00;0.00;;;;;;;7.71;77.63;99770.03;15614014;28;20065;-52
2023/11/11 14:19:19;;;;;;;0.00;0.00;;;;;;;7.50;77.16;99784.50;15616830;28;20038;-48
2023/11/11 14:26:54;;;;;;;0.30;0.08;;;;;;;7.61;77.91;99789.19;15612723;28;20049;-49
2023/11/11 14:34:29;;;;;;;0.00;0.00;;;;;;;7.31;77.90;99804.13;15606878;28;20037;-50
2023/11/11 14:42:02;;;;;;;0.10;0.10;;;;;;;7.19;79.23;99811.97;15608238;28;20037;-49
2023/11/11 14:49:38;;;;;;;0.00;0.00;;;;;;;7.27;79.36;99813.56;15595247;28;20116;-47
2023/11/11 14:57:12;;;;;;;0.00;0.00;;;;;;;7.58;78.38;99808.31;15613383;28;20187;-49
2023/11/11 15:04:47;;;;;;;0.00;0.00;;;;;;;7.59;78.83;99820.63;15609759;28;20046;-50
2023/11/11 15:12:22;;;;;;;0.47;0.30;;;;;;;7.41;79.20;99834.69;15612553;28;20037;-52
2023/11/11 15:19:58;;;;;;;0.10;0.10;;;;;;;7.32;80.64;99838.63;15608439;28;20041;-54
2023/11/11 15:27:31;;;;;;;0.00;0.00;;;;;;;6.90;82.08;99850.63;15614791;28;20056;-51
2023/11/11 15:35:09;;;;;;;0.40;0.35;;;;;;;6.88;82.71;99858.03;15627552;28;20046;-53
2023/11/11 15:42:43;;;;;;;0.00;0.00;;;;;;;7.18;81.54;99870.88;15614105;28;20040;-52
2023/11/11 15:50:19;;;;;;;0.28;0.25;;;;;;;7.51;80.62;99874.28;15602228;28;20457;-54
2023/11/11 15:57:52;;;;;;;2.40;0.40;;;;;;;7.96;79.82;99878.78;15618777;28;20057;-50
2023/11/11 16:05:26;;;;;;;;;;;;;;;7.79;80.41;99895.34;15619215;28;20422;-49
2023/11/11 16:13:00;;;;;;;0.73;0.30;;;;;;;7.82;79.35;99907.44;15618000;28;19968;-52
2023/11/11 16:20:35;;;;;;;0.95;0.77;;;;;;;7.60;80.98;99914.91;15617812;28;20052;-52
2023/11/11 16:28:09;;;;;;;0.22;0.22;;;;;;;7.81;78.85;99921.81;15616165;28;20120;-53
2023/11/11 16:35:44;;;;;;;;;;;;;;;8.18;78.03;99920.19;15618438;28;20124;-50
2023/11/11 16:43:18;;;;;;;0.35;0.10;;;;;;;8.27;77.33;99931.47;15612821;28;19956;-51
2023/11/11 16:50:52;;;;;;;0.52;0.50;;;;;;;8.24;77.24;99939.91;15615994;28;20034;-51
2023/11/11 16:58:26;;;;;;;0.35;0.25;;;;;;;7.98;76.95;99949.72;15613257;28;20044;-52
2023/11/11 17:06:03;;;;;;;0.63;0.45;;;;;;;7.89;77.51;99959.81;15606529;28;20461;-50
2023/11/11 17:13:39;;;;;;;0.40;0.40;;;;;;;7.93;77.61;99960.22;15614515;28;20037;-49
2023/11/11 17:21:14;;;;;;;0.28;0.17;;;;;;;7.44;79.53;99966.09;15613281;28;20034;-51
2023/11/11 17:28:47;;;;;;;0.25;0.25;;;;;;;8.15;77.48;99969.53;15610945;28;20029;-49
2023/11/11 17:36:22;;;;;;;0.00;0.00;;;;;;;7.93;77.53;99966.38;15617250;28;20037;-51
2023/11/11 17:43:56;;;;;;;0.98;0.65;;;;;;;7.93;77.57;99970.91;15612823;28;20045;-50
2023/11/11 17:51:34;;;;;;;1.55;0.60;;;;;;;7.48;79.41;99980.69;15625861;22;20410;-49
2023/11/11 17:59:07;;;;;;;0.70;0.32;;;;;;;7.54;79.97;99979.84;15668852;28;20033;-53
2023/11/11 18:06:45;;;;;;;0.28;0.28;;;;;;;7.80;78.83;99984.31;15674490;28;20041;-49
2023/11/11 18:14:19;;;;;;;0.00;0.00;;;;;;;7.68;78.80;99984.13;15674324;28;20124;-51
2023/11/11 18:21:55;;;;;;;0.10;0.10;;;;;;;8.10;77.61;99990.75;15674188;28;20041;-50
2023/11/11 18:29:28;;;;;;;0.00;0.00;;;;;;;7.87;78.13;99990.44;15673604;28;20071;-51
2023/11/11 18:37:03;;;;;;;0.30;0.25;;;;;;;7.49;79.74;99993.81;15678054;28;20045;-50
2023/11/11 18:44:37;;;;;;;0.20;0.20;;;;;;;7.77;78.29;100009.56;15669762;28;20044;-51
2023/11/11 18:52:12;;;;;;;0.20;0.20;;;;;;;7.72;78.22;100013.91;15687579;28;20118;-49
2023/11/11 18:59:46;;;;;;;0.00;0.00;;;;;;;7.31;78.52;100017.66;15717127;28;20059;-49
2023/11/11 19:07:20;;;;;;;1.58;1.48;;;;;;;7.14;78.84;100019.94;15732848;28;20064;-51
2023/11/11 19:14:54;;;;;;;0.00;0.00;;;;;;;7.13;78.79;100027.13;15711482;28;20044;-52
2023/11/11 19:22:29;;;;;;;0.22;0.22;;;;;;;7.32;79.19;100030.81;15732403;28;20043;-50
2023/11/11 19:30:02;;;;;;;0.75;0.55;;;;;;;7.35;78.74;100034.91;15733665;28;20045;-48
2023/11/11 19:37:38;;;;;;;0.10;0.10;;;;;;;7.46;78.71;100046.81;15733909;28;20040;-49
2023/11/11 19:45:14;;;;;;;1.08;0.52;;;;;;;7.44;77.36;100041.69;15733243;28;20048;-49
2023/11/11 19:52:49;;;;;;;0.55;0.43;;;;;;;7.54;77.72;100046.59;15715669;28;20418;-50
2023/11/11 20:00:22;;;;;;;0.20;0.20;;;;;;;7.41;77.60;100045.63;15740456;28;20574;-55
2023/11/11 20:07:57;;;;;;;0.13;0.13;;;;;;;7.13;79.04;100048.50;15743512;28;20050;-52
2023/11/11 20:15:31;;;;;;;0.65;0.65;;;;;;;6.98;79.51;100052.34;15735598;28;20497;-49
2023/11/11 20:23:06;;;;;;;0.00;0.00;;;;;;;7.36;78.85;100055.25;15724893;28;20424;-50
2023/11/11 20:30:39;;;;;;;2.20;0.63;;;;;;;7.06;79.43;100060.19;15737884;28;20362;-50
2023/11/11 20:38:14;;;;;;;0.43;0.43;;;;;;;7.12;79.95;100057.50;15737431;28;20056;-51
2023/11/11 20:45:47;;;;;;;0.00;0.00;;;;;;;7.36;78.07;100052.56;15724070;28;20159;-50
2023/11/11 20:53:21;;;;;;;0.00;0.00;;;;;;;7.47;77.41;100051.16;15740399;28;20131;-51
2023/11/11 21:00:55;;;;;;;0.00;0.00;;;;;;;7.68;76.88;100046.38;15742418;28;20044;-50
2023/11/11 21:08:30;;;;;;;1.00;0.80;;;;;;;7.53;77.26;100048.47;15741462;28;20037;-53
2023/11/11 21:16:03;;;;;;;0.00;0.00;;;;;;;7.63;76.08;100048.84;15740785;28;20084;-52
2023/11/11 21:23:38;;;;;;;0.00;0.00;;;;;;;7.75;75.51;100043.72;15722023;28;20339;-54
2023/11/11 21:31:11;;;;;;;0.38;0.38;;;;;;;7.55;75.12;100046.38;15739426;28;20436;-50
2023/11/11 21:38:46;;;;;;;0.35;0.30;;;;;;;7.35;75.42;100061.63;15721261;28;20044;-53
2023/11/11 21:46:19;;;;;;;0.00;0.00;;;;;;;7.46;75.92;100047.66;15738330;28;20052;-51
2023/11/11 21:53:54;;;;;;;0.20;0.20;;;;;;;7.03;77.76;100053.38;15745429;28;20484;-47
2023/11/11 22:01:27;;;;;;;0.03;0.03;;;;;;;7.23;76.51;100048.06;15738101;28;20045;-48
2023/11/11 22:09:05;;;;;;;0.00;0.00;;;;;;;7.22;77.24;100046.41;15737086;28;20048;-48
2023/11/11 22:16:38;;;;;;;0.00;0.00;;;;;;;7.22;77.14;100049.06;15736861;28;20047;-50
2023/11/11 22:24:13;;;;;;;;;;;;;;;7.09;77.51;100054.44;15736301;28;20058;-54
2023/11/11 22:31:47;;;;;;;0.32;0.32;;;;;;;6.90;77.88;100048.88;15717992;28;19920;-51
2023/11/11 22:39:21;;;;;;;0.20;0.20;;;;;;;6.94;77.98;100040.44;15735940;28;20464;-49
2023/11/11 22:46:55;;;;;;;0.00;0.00;;;;;;;7.09;77.27;100041.91;15717405;28;20462;-52
2023/11/11 22:54:30;;;;;;;0.00;0.00;;;;;;;6.72;78.82;100047.81;15735531;28;20047;-48
2023/11/11 23:02:04;;;;;;;0.05;0.05;;;;;;;6.73;79.24;100042.28;15734081;28;20106;-49
2023/11/11 23:09:38;;;;;;;0.55;0.55;;;;;;;6.80;78.01;100043.09;15735678;28;20047;-49
2023/11/11 23:17:12;;;;;;;0.00;0.00;;;;;;;6.83;78.25;100045.38;15734771;28;20048;-53
2023/11/11 23:24:48;;;;;;;0.00;0.00;;;;;;;7.20;76.48;100034.31;15716725;28;20044;-51
2023/11/11 23:32:22;;;;;;;0.17;0.10;;;;;;;7.43;76.45;100039.22;15719329;28;20048;-51
2023/11/11 23:39:56;;;;;;;0.20;0.20;;;;;;;6.88;77.21;100028.75;15745862;28;20512;-53
2023/11/11 23:47:30;;;;;;;0.38;0.38;;;;;;;7.18;77.69;100031.84;15744751;28;20052;-51
2023/11/11 23:55:07;;;;;;;0.03;0.03;;;;;;;7.06;77.17;100020.16;15692911;22;20061;-49
